sensor_id;sensor_type;location;lat;lon;timestamp;pressure;altitude;pressure_sealevel;temperature;humidity
28428;BME280;15662;49.128;8.520;2024-01-11T00:02:23;101588.56;;;4.12;38.79
28428;BME280;15662;49.128;8.520;2024-01-11T00:04:50;101596.44;;;4.12;39.25
28428;BME280;15662;49.128;8.520;2024-01-11T00:07:17;101595.47;;;4.08;38.92
28428;BME280;15662;49.128;8.520;2024-01-11T00:09:45;101584.81;;;3.99;39.13
28428;BME280;15662;49.128;8.520;2024-01-11T00:12:13;101594.50;;;4.03;39.24
28428;BME280;15662;49.128;8.520;2024-01-11T00:14:40;101597.09;;;4.02;38.63
28428;BME280;15662;49.128;8.520;2024-01-11T00:17:07;101604.88;;;3.99;38.79
28428;BME280;15662;49.128;8.520;2024-01-11T00:19:34;101596.22;;;4.01;39.13
28428;BME280;15662;49.128;8.520;2024-01-11T00:22:01;101604.97;;;4.02;39.02
28428;BME280;15662;49.128;8.520;2024-01-11T00:24:29;101605.81;;;4.01;38.79
28428;BME280;15662;49.128;8.520;2024-01-11T00:26:56;101604.09;;;4.01;39.00
28428;BME280;15662;49.128;8.520;2024-01-11T00:29:23;101599.72;;;4.02;38.96
28428;BME280;15662;49.128;8.520;2024-01-11T00:31:50;101603.22;;;4.02;38.78
28428;BME280;15662;49.128;8.520;2024-01-11T00:34:17;101611.06;;;4.01;38.81
28428;BME280;15662;49.128;8.520;2024-01-11T00:36:44;101601.38;;;3.97;39.20
28428;BME280;15662;49.128;8.520;2024-01-11T00:39:11;101602.34;;;4.02;38.96
28428;BME280;15662;49.128;8.520;2024-01-11T00:41:38;101609.31;;;4.00;39.01
28428;BME280;15662;49.128;8.520;2024-01-11T00:44:06;101597.09;;;4.02;39.13
28428;BME280;15662;49.128;8.520;2024-01-11T00:46:34;101597.94;;;3.99;39.24
28428;BME280;15662;49.128;8.520;2024-01-11T00:49:02;101603.19;;;4.01;39.03
28428;BME280;15662;49.128;8.520;2024-01-11T00:51:29;101615.47;;;4.03;39.34
28428;BME280;15662;49.128;8.520;2024-01-11T00:53:56;101600.63;;;4.04;38.69
28428;BME280;15662;49.128;8.520;2024-01-11T00:56:23;101589.16;;;3.99;38.87
28428;BME280;15662;49.128;8.520;2024-01-11T00:58:50;101595.38;;;4.04;39.46
28428;BME280;15662;49.128;8.520;2024-01-11T01:01:18;101597.16;;;4.05;38.95
28428;BME280;15662;49.128;8.520;2024-01-11T01:03:45;101603.25;;;4.04;39.13
28428;BME280;15662;49.128;8.520;2024-01-11T01:06:13;101607.59;;;4.03;38.97
28428;BME280;15662;49.128;8.520;2024-01-11T01:08:40;101607.50;;;3.99;39.29
28428;BME280;15662;49.128;8.520;2024-01-11T01:11:07;101609.25;;;3.98;39.07
28428;BME280;15662;49.128;8.520;2024-01-11T01:13:35;101602.13;;;3.91;39.18
28428;BME280;15662;49.128;8.520;2024-01-11T01:16:02;101603.03;;;3.93;39.41
28428;BME280;15662;49.128;8.520;2024-01-11T01:18:29;101605.59;;;3.90;38.90
28428;BME280;15662;49.128;8.520;2024-01-11T01:20:56;101603.03;;;3.93;38.88
28428;BME280;15662;49.128;8.520;2024-01-11T01:23:26;101609.03;;;3.87;39.23
28428;BME280;15662;49.128;8.520;2024-01-11T01:25:53;101613.41;;;3.88;39.08
28428;BME280;15662;49.128;8.520;2024-01-11T01:28:20;101623.88;;;3.87;39.41
28428;BME280;15662;49.128;8.520;2024-01-11T01:30:47;101620.38;;;3.85;39.27
28428;BME280;15662;49.128;8.520;2024-01-11T01:33:14;101629.91;;;3.83;39.46
28428;BME280;15662;49.128;8.520;2024-01-11T01:35:41;101629.88;;;3.80;38.84
28428;BME280;15662;49.128;8.520;2024-01-11T01:38:09;101632.41;;;3.77;39.03
28428;BME280;15662;49.128;8.520;2024-01-11T01:40:37;101628.78;;;3.70;39.19
28428;BME280;15662;49.128;8.520;2024-01-11T01:43:07;101635.75;;;3.70;39.41
28428;BME280;15662;49.128;8.520;2024-01-11T01:45:37;101627.78;;;3.65;39.62
28428;BME280;15662;49.128;8.520;2024-01-11T01:48:04;101642.66;;;3.66;39.26
28428;BME280;15662;49.128;8.520;2024-01-11T01:50:32;101647.88;;;3.65;39.41
28428;BME280;15662;49.128;8.520;2024-01-11T01:53:00;101641.59;;;3.58;39.08
28428;BME280;15662;49.128;8.520;2024-01-11T01:55:29;101640.72;;;3.57;39.15
28428;BME280;15662;49.128;8.520;2024-01-11T01:57:57;101644.28;;;3.61;39.32
28428;BME280;15662;49.128;8.520;2024-01-11T02:00:26;101639.91;;;3.60;39.59
28428;BME280;15662;49.128;8.520;2024-01-11T02:02:55;101643.41;;;3.60;39.42
28428;BME280;15662;49.128;8.520;2024-01-11T02:05:24;101636.34;;;3.58;39.66
28428;BME280;15662;49.128;8.520;2024-01-11T02:07:52;101641.63;;;3.59;39.47
28428;BME280;15662;49.128;8.520;2024-01-11T02:10:19;101638.09;;;3.57;39.21
28428;BME280;15662;49.128;8.520;2024-01-11T02:12:47;101646.03;;;3.60;39.68
28428;BME280;15662;49.128;8.520;2024-01-11T02:15:14;101646.88;;;3.59;39.23
28428;BME280;15662;49.128;8.520;2024-01-11T02:17:41;101643.34;;;3.59;39.49
28428;BME280;15662;49.128;8.520;2024-01-11T02:20:10;101646.03;;;3.60;39.59
28428;BME280;15662;49.128;8.520;2024-01-11T02:22:41;101646.91;;;3.61;39.88
28428;BME280;15662;49.128;8.520;2024-01-11T02:25:10;101637.19;;;3.55;39.74
28428;BME280;15662;49.128;8.520;2024-01-11T02:27:47;101639.81;;;3.57;39.89
28428;BME280;15662;49.128;8.520;2024-01-11T02:30:15;101623.00;;;3.47;39.47
28428;BME280;15662;49.128;8.520;2024-01-11T02:32:44;101646.81;;;3.56;39.57
28428;BME280;15662;49.128;8.520;2024-01-11T02:35:16;101642.44;;;3.55;39.80
28428;BME280;15662;49.128;8.520;2024-01-11T02:37:44;101644.19;;;3.56;39.52
28428;BME280;15662;49.128;8.520;2024-01-11T02:40:13;101638.09;;;3.57;39.66
28428;BME280;15662;49.128;8.520;2024-01-11T02:42:42;101639.81;;;3.57;39.35
28428;BME280;15662;49.128;8.520;2024-01-11T02:45:11;101620.41;;;3.49;39.60
28428;BME280;15662;49.128;8.520;2024-01-11T02:47:39;101633.63;;;3.53;39.46
28428;BME280;15662;49.128;8.520;2024-01-11T02:50:08;101631.06;;;3.55;39.66
28428;BME280;15662;49.128;8.520;2024-01-11T02:52:35;101628.28;;;3.49;39.62
28428;BME280;15662;49.128;8.520;2024-01-11T02:55:03;101630.94;;;3.50;40.12
28428;BME280;15662;49.128;8.520;2024-01-11T02:57:30;101635.22;;;3.47;40.03
28428;BME280;15662;49.128;8.520;2024-01-11T02:59:57;101638.69;;;3.46;39.86
28428;BME280;15662;49.128;8.520;2024-01-11T03:02:24;101627.13;;;3.38;39.58
28428;BME280;15662;49.128;8.520;2024-01-11T03:04:51;101636.03;;;3.44;39.57
28428;BME280;15662;49.128;8.520;2024-01-11T03:07:18;101625.53;;;3.44;39.63
28428;BME280;15662;49.128;8.520;2024-01-11T03:09:45;101624.63;;;3.42;39.47
28428;BME280;15662;49.128;8.520;2024-01-11T03:12:13;101622.13;;;3.47;39.74
28428;BME280;15662;49.128;8.520;2024-01-11T03:14:40;101633.50;;;3.49;40.03
28428;BME280;15662;49.128;8.520;2024-01-11T03:17:07;101623.03;;;3.49;40.09
28428;BME280;15662;49.128;8.520;2024-01-11T03:19:39;101631.78;;;3.49;39.96
28428;BME280;15662;49.128;8.520;2024-01-11T03:22:06;101623.88;;;3.48;39.58
28428;BME280;15662;49.128;8.520;2024-01-11T03:24:37;101635.22;;;3.47;40.11
28428;BME280;15662;49.128;8.520;2024-01-11T03:27:06;101631.59;;;3.42;40.20
28428;BME280;15662;49.128;8.520;2024-01-11T03:29:33;101631.59;;;3.42;39.57
28428;BME280;15662;49.128;8.520;2024-01-11T03:32:00;101634.97;;;3.36;40.00
28428;BME280;15662;49.128;8.520;2024-01-11T03:34:28;101630.50;;;3.32;39.68
28428;BME280;15662;49.128;8.520;2024-01-11T03:36:55;101636.53;;;3.29;40.05
28428;BME280;15662;49.128;8.520;2024-01-11T03:39:23;101617.19;;;3.24;40.08
28428;BME280;15662;49.128;8.520;2024-01-11T03:41:50;101618.94;;;3.24;39.94
28428;BME280;15662;49.128;8.520;2024-01-11T03:44:17;101615.38;;;3.20;39.95
28428;BME280;15662;49.128;8.520;2024-01-11T03:46:45;101624.91;;;3.18;40.23
28428;BME280;15662;49.128;8.520;2024-01-11T03:49:12;101623.13;;;3.16;40.11
28428;BME280;15662;49.128;8.520;2024-01-11T03:51:39;101619.72;;;3.20;40.16
28428;BME280;15662;49.128;8.520;2024-01-11T03:54:06;101621.50;;;3.21;39.94
28428;BME280;15662;49.128;8.520;2024-01-11T03:56:36;101625.03;;;3.23;40.42
28428;BME280;15662;49.128;8.520;2024-01-11T03:59:03;101625.03;;;3.23;40.35
28428;BME280;15662;49.128;8.520;2024-01-11T04:01:31;101631.16;;;3.23;40.37
28428;BME280;15662;49.128;8.520;2024-01-11T04:03:58;101622.34;;;3.20;40.13
28428;BME280;15662;49.128;8.520;2024-01-11T04:06:25;101625.00;;;3.21;40.06
28428;BME280;15662;49.128;8.520;2024-01-11T04:08:52;101618.91;;;3.22;40.04
28428;BME280;15662;49.128;8.520;2024-01-11T04:11:19;101621.56;;;3.24;40.29
28428;BME280;15662;49.128;8.520;2024-01-11T04:13:47;101622.38;;;3.21;40.26
28428;BME280;15662;49.128;8.520;2024-01-11T04:16:14;101609.19;;;3.17;40.33
28428;BME280;15662;49.128;8.520;2024-01-11T04:18:41;101613.47;;;3.15;39.93
28428;BME280;15662;49.128;8.520;2024-01-11T04:21:19;101618.59;;;3.10;40.31
28428;BME280;15662;49.128;8.520;2024-01-11T04:23:47;101612.31;;;3.02;40.27
28428;BME280;15662;49.128;8.520;2024-01-11T04:26:14;101613.22;;;3.04;39.93
28428;BME280;15662;49.128;8.520;2024-01-11T04:28:41;101619.31;;;3.03;40.38
28428;BME280;15662;49.128;8.520;2024-01-11T04:31:09;101613.06;;;2.98;39.97
28428;BME280;15662;49.128;8.520;2024-01-11T04:33:39;101613.94;;;2.98;39.99
28428;BME280;15662;49.128;8.520;2024-01-11T04:36:06;101615.72;;;2.99;40.37
28428;BME280;15662;49.128;8.520;2024-01-11T04:38:34;101613.09;;;2.99;40.52
28428;BME280;15662;49.128;8.520;2024-01-11T04:41:11;101621.91;;;3.01;40.06
28428;BME280;15662;49.128;8.520;2024-01-11T04:43:39;101618.22;;;2.95;40.30
28428;BME280;15662;49.128;8.520;2024-01-11T04:46:23;101619.94;;;2.93;40.43
28428;BME280;15662;49.128;8.520;2024-01-11T04:48:50;101624.28;;;2.92;40.45
28428;BME280;15662;49.128;8.520;2024-01-11T04:51:18;101616.28;;;2.86;40.40
28428;BME280;15662;49.128;8.520;2024-01-11T04:53:46;101623.44;;;2.93;40.95
28428;BME280;15662;49.128;8.520;2024-01-11T04:56:16;101623.41;;;2.92;40.67
28428;BME280;15662;49.128;8.520;2024-01-11T04:58:45;101626.03;;;2.93;40.40
28428;BME280;15662;49.128;8.520;2024-01-11T05:01:17;101633.03;;;2.93;40.51
28428;BME280;15662;49.128;8.520;2024-01-11T05:03:46;101620.66;;;2.87;40.87
28428;BME280;15662;49.128;8.520;2024-01-11T05:06:20;101638.34;;;2.96;40.71
28428;BME280;15662;49.128;8.520;2024-01-11T05:08:50;101634.72;;;2.91;40.50
28428;BME280;15662;49.128;8.520;2024-01-11T05:11:23;101639.00;;;2.87;40.80
28428;BME280;15662;49.128;8.520;2024-01-11T05:13:52;101637.13;;;2.83;40.96
28428;BME280;15662;49.128;8.520;2024-01-11T05:16:27;101642.50;;;2.88;40.78
28428;BME280;15662;49.128;8.520;2024-01-11T05:18:56;101644.16;;;2.85;40.82
28428;BME280;15662;49.128;8.520;2024-01-11T05:21:24;101652.00;;;2.84;41.06
28428;BME280;15662;49.128;8.520;2024-01-11T05:23:52;101648.41;;;2.80;40.89
28428;BME280;15662;49.128;8.520;2024-01-11T05:26:20;101640.38;;;2.74;41.08
28428;BME280;15662;49.128;8.520;2024-01-11T05:28:48;101643.88;;;2.73;41.22
28428;BME280;15662;49.128;8.520;2024-01-11T05:31:15;101651.69;;;2.72;40.85
28428;BME280;15662;49.128;8.520;2024-01-11T05:33:44;101646.34;;;2.69;40.99
28428;BME280;15662;49.128;8.520;2024-01-11T05:36:12;101661.28;;;2.71;41.24
28428;BME280;15662;49.128;8.520;2024-01-11T05:38:39;101646.19;;;2.63;41.36
28428;BME280;15662;49.128;8.520;2024-01-11T05:41:07;101648.97;;;2.69;41.25
28428;BME280;15662;49.128;8.520;2024-01-11T05:43:37;101654.31;;;2.72;41.21
28428;BME280;15662;49.128;8.520;2024-01-11T05:46:07;101642.69;;;2.62;41.33
28428;BME280;15662;49.128;8.520;2024-01-11T05:48:34;101651.56;;;2.67;41.15
28428;BME280;15662;49.128;8.520;2024-01-11T05:51:03;101653.34;;;2.70;41.05
28428;BME280;15662;49.128;8.520;2024-01-11T05:53:30;101668.16;;;2.68;40.96
28428;BME280;15662;49.128;8.520;2024-01-11T05:56:01;101670.38;;;2.54;41.31
28428;BME280;15662;49.128;8.520;2024-01-11T05:58:30;101666.91;;;2.55;41.28
28428;BME280;15662;49.128;8.520;2024-01-11T06:00:57;101674.00;;;2.59;41.14
28428;BME280;15662;49.128;8.520;2024-01-11T06:03:24;101668.75;;;2.57;41.10
28428;BME280;15662;49.128;8.520;2024-01-11T06:05:51;101674.16;;;2.64;41.12
28428;BME280;15662;49.128;8.520;2024-01-11T06:08:19;101676.75;;;2.64;40.96
28428;BME280;15662;49.128;8.520;2024-01-11T06:10:46;101677.59;;;2.61;41.28
28428;BME280;15662;49.128;8.520;2024-01-11T06:13:13;101686.44;;;2.66;40.94
28428;BME280;15662;49.128;8.520;2024-01-11T06:15:40;101674.19;;;2.65;41.16
28428;BME280;15662;49.128;8.520;2024-01-11T06:18:07;101674.31;;;2.70;41.31
28428;BME280;15662;49.128;8.520;2024-01-11T06:20:34;101658.34;;;2.61;41.05
28428;BME280;15662;49.128;8.520;2024-01-11T06:23:02;101670.78;;;2.68;41.23
28428;BME280;15662;49.128;8.520;2024-01-11T06:25:29;101661.91;;;2.63;41.24
28428;BME280;15662;49.128;8.520;2024-01-11T06:27:56;101668.94;;;2.65;40.96
28428;BME280;15662;49.128;8.520;2024-01-11T06:30:23;101671.50;;;2.62;41.33
28428;BME280;15662;49.128;8.520;2024-01-11T06:32:51;101668.81;;;2.61;41.13
28428;BME280;15662;49.128;8.520;2024-01-11T06:35:18;101676.75;;;2.64;40.93
28428;BME280;15662;49.128;8.520;2024-01-11T06:37:46;101675.75;;;2.58;41.00
28428;BME280;15662;49.128;8.520;2024-01-11T06:40:13;101687.00;;;2.56;41.23
28428;BME280;15662;49.128;8.520;2024-01-11T06:42:40;101679.09;;;2.53;41.13
28428;BME280;15662;49.128;8.520;2024-01-11T06:45:08;101685.22;;;2.53;41.12
28428;BME280;15662;49.128;8.520;2024-01-11T06:47:36;101681.56;;;2.48;40.94
28428;BME280;15662;49.128;8.520;2024-01-11T06:50:03;101680.44;;;2.39;41.29
28428;BME280;15662;49.128;8.520;2024-01-11T06:52:31;101690.91;;;2.39;40.90
28428;BME280;15662;49.128;8.520;2024-01-11T06:54:58;101701.25;;;2.36;40.93
28428;BME280;15662;49.128;8.520;2024-01-11T06:57:25;101702.84;;;2.30;40.75
28428;BME280;15662;49.128;8.520;2024-01-11T06:59:52;101707.94;;;2.26;41.12
28428;BME280;15662;49.128;8.520;2024-01-11T07:02:19;101709.47;;;2.18;41.15
28428;BME280;15662;49.128;8.520;2024-01-11T07:04:47;101713.75;;;2.16;40.92
28428;BME280;15662;49.128;8.520;2024-01-11T07:07:14;101725.06;;;2.15;41.26
28428;BME280;15662;49.128;8.520;2024-01-11T07:09:42;101719.69;;;2.10;41.27
28428;BME280;15662;49.128;8.520;2024-01-11T07:12:09;101732.00;;;2.13;41.25
28428;BME280;15662;49.128;8.520;2024-01-11T07:14:36;101744.09;;;2.09;41.21
28428;BME280;15662;49.128;8.520;2024-01-11T07:17:03;101744.94;;;2.08;41.34
28428;BME280;15662;49.128;8.520;2024-01-11T07:19:31;101744.78;;;2.03;41.30
28428;BME280;15662;49.128;8.520;2024-01-11T07:21:59;101754.38;;;2.03;41.41
28428;BME280;15662;49.128;8.520;2024-01-11T07:24:26;101749.91;;;2.00;41.36
28428;BME280;15662;49.128;8.520;2024-01-11T07:26:53;101754.44;;;2.06;41.21
28428;BME280;15662;49.128;8.520;2024-01-11T07:29:21;101754.41;;;2.04;41.53
28428;BME280;15662;49.128;8.520;2024-01-11T07:31:48;101758.94;;;2.10;41.32
28428;BME280;15662;49.128;8.520;2024-01-11T07:34:15;101758.19;;;2.14;41.57
28428;BME280;15662;49.128;8.520;2024-01-11T07:36:42;101768.81;;;2.19;41.51
28428;BME280;15662;49.128;8.520;2024-01-11T07:39:09;101764.47;;;2.21;41.63
28428;BME280;15662;49.128;8.520;2024-01-11T07:41:36;101769.78;;;2.22;41.58
28428;BME280;15662;49.128;8.520;2024-01-11T07:44:06;101769.81;;;2.24;41.59
28428;BME280;15662;49.128;8.520;2024-01-11T07:46:33;101782.06;;;2.25;41.78
28428;BME280;15662;49.128;8.520;2024-01-11T07:49:12;101791.59;;;2.23;41.61
28428;BME280;15662;49.128;8.520;2024-01-11T07:51:39;101789.72;;;2.19;41.64
28428;BME280;15662;49.128;8.520;2024-01-11T07:54:06;101789.88;;;2.23;41.88
28428;BME280;15662;49.128;8.520;2024-01-11T07:56:33;101784.59;;;2.22;41.62
28428;BME280;15662;49.128;8.520;2024-01-11T07:59:02;101783.69;;;2.21;41.96
28428;BME280;15662;49.128;8.520;2024-01-11T08:01:29;101795.28;;;2.29;41.99
28428;BME280;15662;49.128;8.520;2024-01-11T08:03:56;101788.28;;;2.28;41.91
28428;BME280;15662;49.128;8.520;2024-01-11T08:06:24;101791.03;;;2.33;42.03
28428;BME280;15662;49.128;8.520;2024-01-11T08:08:51;101795.44;;;2.34;41.99
28428;BME280;15662;49.128;8.520;2024-01-11T08:11:20;101787.63;;;2.36;41.76
28428;BME280;15662;49.128;8.520;2024-01-11T08:13:47;101795.59;;;2.40;41.89
28428;BME280;15662;49.128;8.520;2024-01-11T08:16:17;101796.63;;;2.45;41.96
28428;BME280;15662;49.128;8.520;2024-01-11T08:18:47;101801.94;;;2.47;41.89
28428;BME280;15662;49.128;8.520;2024-01-11T08:21:16;101793.13;;;2.45;42.06
28428;BME280;15662;49.128;8.520;2024-01-11T08:23:43;101793.28;;;2.49;41.76
28428;BME280;15662;49.128;8.520;2024-01-11T08:26:16;101801.28;;;2.55;41.82
28428;BME280;15662;49.128;8.520;2024-01-11T08:28:45;101798.78;;;2.58;41.73
28428;BME280;15662;49.128;8.520;2024-01-11T08:31:13;101795.28;;;2.58;42.21
28428;BME280;15662;49.128;8.520;2024-01-11T08:33:40;101791.81;;;2.59;41.88
28428;BME280;15662;49.128;8.520;2024-01-11T08:36:07;101799.69;;;2.61;42.10
28428;BME280;15662;49.128;8.520;2024-01-11T08:38:35;101783.03;;;2.57;42.31
28428;BME280;15662;49.128;8.520;2024-01-11T08:41:03;101800.69;;;2.64;42.12
28428;BME280;15662;49.128;8.520;2024-01-11T08:43:31;101804.25;;;2.66;42.37
28428;BME280;15662;49.128;8.520;2024-01-11T08:45:58;101806.09;;;2.70;42.30
28428;BME280;15662;49.128;8.520;2024-01-11T08:48:26;101805.22;;;2.70;42.05
28428;BME280;15662;49.128;8.520;2024-01-11T08:50:54;101796.63;;;2.74;42.53
28428;BME280;15662;49.128;8.520;2024-01-11T08:53:21;101798.56;;;2.81;42.59
28428;BME280;15662;49.128;8.520;2024-01-11T08:55:48;101805.66;;;2.85;42.35
28428;BME280;15662;49.128;8.520;2024-01-11T08:58:15;101804.00;;;2.89;42.85
28428;BME280;15662;49.128;8.520;2024-01-11T09:00:42;101815.53;;;2.95;42.33
28428;BME280;15662;49.128;8.520;2024-01-11T09:03:11;101819.16;;;2.99;42.48
28428;BME280;15662;49.128;8.520;2024-01-11T09:05:41;101812.25;;;3.01;43.00
28428;BME280;15662;49.128;8.520;2024-01-11T09:08:08;101811.53;;;3.06;42.73
28428;BME280;15662;49.128;8.520;2024-01-11T09:10:35;101805.44;;;3.07;42.89
28428;BME280;15662;49.128;8.520;2024-01-11T09:13:03;101813.47;;;3.15;43.08
28428;BME280;15662;49.128;8.520;2024-01-11T09:15:30;101788.19;;;3.16;42.86
28428;BME280;15662;49.128;8.520;2024-01-11T09:17:58;101810.34;;;3.27;43.06
28428;BME280;15662;49.128;8.520;2024-01-11T09:20:27;101805.16;;;3.30;43.08
28428;BME280;15662;49.128;8.520;2024-01-11T09:22:54;101810.59;;;3.36;42.79
28428;BME280;15662;49.128;8.520;2024-01-11T09:25:21;101803.63;;;3.38;43.31
28428;BME280;15662;49.128;8.520;2024-01-11T09:27:49;101818.56;;;3.41;42.94
28428;BME280;15662;49.128;8.520;2024-01-11T09:30:16;101821.25;;;3.44;43.03
28428;BME280;15662;49.128;8.520;2024-01-11T09:32:44;101807.22;;;3.42;42.77
28428;BME280;15662;49.128;8.520;2024-01-11T09:35:11;101820.53;;;3.49;43.22
28428;BME280;15662;49.128;8.520;2024-01-11T09:37:42;101812.75;;;3.52;43.28
28428;BME280;15662;49.128;8.520;2024-01-11T09:40:14;101821.66;;;3.59;42.88
28428;BME280;15662;49.128;8.520;2024-01-11T09:42:41;101819.13;;;3.62;43.38
28428;BME280;15662;49.128;8.520;2024-01-11T09:45:14;101821.84;;;3.67;43.07
28428;BME280;15662;49.128;8.520;2024-01-11T09:47:45;101819.25;;;3.67;43.00
28428;BME280;15662;49.128;8.520;2024-01-11T09:50:15;101818.53;;;3.74;42.78
28428;BME280;15662;49.128;8.520;2024-01-11T09:52:49;101816.78;;;3.74;43.15
28428;BME280;15662;49.128;8.520;2024-01-11T09:55:18;101821.28;;;3.78;43.15
28428;BME280;15662;49.128;8.520;2024-01-11T09:57:47;101820.47;;;3.81;43.43
28428;BME280;15662;49.128;8.520;2024-01-11T10:00:20;101804.84;;;3.85;42.81
28428;BME280;15662;49.128;8.520;2024-01-11T10:02:49;101795.38;;;3.91;43.48
28428;BME280;15662;49.128;8.520;2024-01-11T10:05:17;101798.22;;;4.01;43.00
28428;BME280;15662;49.128;8.520;2024-01-11T10:07:45;101799.16;;;4.03;43.35
28428;BME280;15662;49.128;8.520;2024-01-11T10:10:15;101795.75;;;4.07;42.79
28428;BME280;15662;49.128;8.520;2024-01-11T10:12:42;101801.19;;;4.15;43.06
28428;BME280;15662;49.128;8.520;2024-01-11T10:15:10;101801.31;;;4.20;42.92
28428;BME280;15662;49.128;8.520;2024-01-11T10:17:43;101797.91;;;4.24;43.19
28428;BME280;15662;49.128;8.520;2024-01-11T10:20:14;101791.81;;;4.26;42.88
28428;BME280;15662;49.128;8.520;2024-01-11T10:22:46;101793.72;;;4.33;43.36
28428;BME280;15662;49.128;8.520;2024-01-11T10:25:14;101794.66;;;4.35;43.29
28428;BME280;15662;49.128;8.520;2024-01-11T10:27:44;101807.13;;;4.46;43.00
28428;BME280;15662;49.128;8.520;2024-01-11T10:30:13;101805.50;;;4.51;43.31
28428;BME280;15662;49.128;8.520;2024-01-11T10:32:44;101801.09;;;4.50;43.27
28428;BME280;15662;49.128;8.520;2024-01-11T10:35:11;101792.28;;;4.48;43.33
28428;BME280;15662;49.128;8.520;2024-01-11T10:37:39;101811.75;;;4.57;42.82
28428;BME280;15662;49.128;8.520;2024-01-11T10:40:08;101813.56;;;4.60;42.83
28428;BME280;15662;49.128;8.520;2024-01-11T10:42:44;101813.63;;;4.63;43.28
28428;BME280;15662;49.128;8.520;2024-01-11T10:45:20;101824.28;;;4.69;42.60
28428;BME280;15662;49.128;8.520;2024-01-11T10:47:55;101817.34;;;4.73;42.96
28428;BME280;15662;49.128;8.520;2024-01-11T10:50:36;101818.28;;;4.76;42.90
28428;BME280;15662;49.128;8.520;2024-01-11T10:56:05;101799.03;;;4.77;43.21
28428;BME280;15662;49.128;8.520;2024-01-11T10:58:36;101795.63;;;4.80;43.20
28428;BME280;15662;49.128;8.520;2024-01-11T11:01:05;101806.25;;;4.87;42.79
28428;BME280;15662;49.128;8.520;2024-01-11T11:03:34;101793.19;;;4.90;42.87
28428;BME280;15662;49.128;8.520;2024-01-11T11:06:05;101789.81;;;4.96;43.07
28428;BME280;15662;49.128;8.520;2024-01-11T11:08:33;101781.72;;;4.87;42.87
28428;BME280;15662;49.128;8.520;2024-01-11T11:11:03;101771.47;;;4.98;42.83
28428;BME280;15662;49.128;8.520;2024-01-11T11:13:35;101781.25;;;5.06;42.88
28428;BME280;15662;49.128;8.520;2024-01-11T11:16:03;101780.47;;;5.12;42.69
28428;BME280;15662;49.128;8.520;2024-01-11T11:18:34;101779.66;;;5.14;42.81
28428;BME280;15662;49.128;8.520;2024-01-11T11:21:10;101787.66;;;5.21;42.79
28428;BME280;15662;49.128;8.520;2024-01-11T11:23:38;101793.84;;;5.23;42.68
28428;BME280;15662;49.128;8.520;2024-01-11T11:26:07;101790.44;;;5.28;42.76
28428;BME280;15662;49.128;8.520;2024-01-11T11:28:35;101773.81;;;5.31;42.73
28428;BME280;15662;49.128;8.520;2024-01-11T11:31:03;101762.59;;;5.41;42.93
28428;BME280;15662;49.128;8.520;2024-01-11T11:33:30;101760.13;;;5.49;43.04
28428;BME280;15662;49.128;8.520;2024-01-11T11:35:59;101754.94;;;5.53;42.58
28428;BME280;15662;49.128;8.520;2024-01-11T11:38:29;101747.06;;;5.53;42.70
28428;BME280;15662;49.128;8.520;2024-01-11T11:40:59;101752.41;;;5.59;42.51
28428;BME280;15662;49.128;8.520;2024-01-11T11:43:28;101757.72;;;5.62;42.55
28428;BME280;15662;49.128;8.520;2024-01-11T11:45:57;101747.22;;;5.65;42.86
28428;BME280;15662;49.128;8.520;2024-01-11T11:51:14;101737.81;;;5.78;42.33
28428;BME280;15662;49.128;8.520;2024-01-11T11:53:48;101717.56;;;5.74;42.68
28428;BME280;15662;49.128;8.520;2024-01-11T11:56:18;101741.47;;;5.89;42.45
28428;BME280;15662;49.128;8.520;2024-01-11T11:58:47;101737.19;;;5.91;42.22
28428;BME280;15662;49.128;8.520;2024-01-11T12:01:15;101736.38;;;5.97;42.33
28428;BME280;15662;49.128;8.520;2024-01-11T12:03:45;101734.69;;;6.02;42.70
28428;BME280;15662;49.128;8.520;2024-01-11T12:06:20;101730.34;;;6.06;42.09
28428;BME280;15662;49.128;8.520;2024-01-11T12:08:53;101708.38;;;6.02;42.11
28428;BME280;15662;49.128;8.520;2024-01-11T12:11:24;101719.94;;;6.12;42.06
28428;BME280;15662;49.128;8.520;2024-01-11T12:13:51;101719.13;;;6.17;42.08
28428;BME280;15662;49.128;8.520;2024-01-11T12:16:20;101715.59;;;6.17;42.24
28428;BME280;15662;49.128;8.520;2024-01-11T12:18:49;101703.41;;;6.25;42.20
28428;BME280;15662;49.128;8.520;2024-01-11T12:21:17;101706.91;;;6.24;41.92
28428;BME280;15662;49.128;8.520;2024-01-11T12:23:44;101699.88;;;6.23;42.16
28428;BME280;15662;49.128;8.520;2024-01-11T12:26:12;101712.22;;;6.27;42.13
28428;BME280;15662;49.128;8.520;2024-01-11T12:28:42;101709.59;;;6.27;41.98
28428;BME280;15662;49.128;8.520;2024-01-11T12:31:11;101713.16;;;6.31;42.04
28428;BME280;15662;49.128;8.520;2024-01-11T12:33:40;101713.19;;;6.34;41.91
28428;BME280;15662;49.128;8.520;2024-01-11T12:36:08;101702.66;;;6.34;41.91
28428;BME280;15662;49.128;8.520;2024-01-11T12:38:36;101690.41;;;6.37;41.97
28428;BME280;15662;49.128;8.520;2024-01-11T12:41:04;101697.50;;;6.44;41.89
28428;BME280;15662;49.128;8.520;2024-01-11T12:43:33;101700.16;;;6.44;41.56
28428;BME280;15662;49.128;8.520;2024-01-11T12:46:01;101677.31;;;6.42;41.91
28428;BME280;15662;49.128;8.520;2024-01-11T12:48:30;101697.63;;;6.51;41.88
28428;BME280;15662;49.128;8.520;2024-01-11T12:50:58;101678.25;;;6.49;41.73
28428;BME280;15662;49.128;8.520;2024-01-11T12:53:40;101692.34;;;6.51;41.65
28428;BME280;15662;49.128;8.520;2024-01-11T12:56:08;101685.34;;;6.53;41.59
28428;BME280;15662;49.128;8.520;2024-01-11T12:58:38;101675.63;;;6.49;41.27
28428;BME280;15662;49.128;8.520;2024-01-11T13:01:06;101679.19;;;6.54;41.55
28428;BME280;15662;49.128;8.520;2024-01-11T13:03:39;101685.38;;;6.56;41.72
28428;BME280;15662;49.128;8.520;2024-01-11T13:06:06;101677.47;;;6.56;41.67
28428;BME280;15662;49.128;8.520;2024-01-11T13:08:37;101677.50;;;6.57;41.63
28428;BME280;15662;49.128;8.520;2024-01-11T13:11:07;101674.03;;;6.63;41.30
28428;BME280;15662;49.128;8.520;2024-01-11T13:13:35;101681.13;;;6.67;41.62